• Join FlightAware (Why Join?)
  • Login
  • US Flag 
02:42AM EDT


 

Airport Tracker/Info


-or-


 

Live Flight TrackerFlight Track Log ✈ THA215 ✈ 11-May-2012 ✈ VTBS / BKK - VTSP / HKT

Flight Track Log - Related Links

Times and Time Zones

All times are in EDT time to prevent confusion due to time zone crossing. See the THA215 flight status page for this flight to view local times or setup timezone preferences in your user account.

Time Position Orientation Groundspeed Altitude Reporting Facility
EDT Latitude Longitude Course Direction KTS MPH feet Rate Location/Type
03:37AM 12.4478 100.1999 203° Southwest  Level Estimated
03:38AM 12.3409 100.1527 203° Southwest  Level Estimated
03:39AM 12.2339 100.1056 203° Southwest  Level Estimated
03:40AM 12.1269 100.0584 203° Southwest  Level Estimated
03:41AM 12.0199 100.0114 203° Southwest  Level Estimated
03:42AM 11.9128 99.9643 203° Southwest  Level Estimated
03:43AM 11.8058 99.9173 203° Southwest  Level Estimated
03:44AM 11.6988 99.8703 203° Southwest  Level Estimated
03:45AM 11.5918 99.8234 203° Southwest  Level Estimated
03:46AM 11.4847 99.7765 203° Southwest  Level Estimated
03:47AM 11.3777 99.7296 203° Southwest  Level Estimated
03:48AM 11.2706 99.6827 203° Southwest  Level Estimated
03:49AM 11.1635 99.6359 203° Southwest  Level Estimated
03:50AM 11.0564 99.5892 203° Southwest  Level Estimated
03:51AM 10.9494 99.5424 203° Southwest  Level Estimated
03:52AM 10.8423 99.4957 203° Southwest  Level Estimated
03:53AM 10.7352 99.4491 203° Southwest  Level Estimated
03:54AM 10.6281 99.4025 203° Southwest  Level Estimated
03:55AM 10.5210 99.3559 203° Southwest  Level Estimated
03:56AM 10.4138 99.3093 203° Southwest  Level Estimated
03:57AM 10.3067 99.2627 203° Southwest  Level Estimated
03:58AM 10.1996 99.2162 203° Southwest  Level Estimated
03:59AM 10.0925 99.1698 203° Southwest  Level Estimated
04:00AM 9.9853 99.1233 203° Southwest  Level Estimated
04:01AM 9.8782 99.0769 203° Southwest  Level Estimated
04:02AM 9.7710 99.0305 203° Southwest  Level Estimated
04:03AM 9.6638 98.9842 203° Southwest  Level Estimated
04:04AM 9.5567 98.9379 203° Southwest  Level Estimated
04:05AM 9.4495 98.8916 203° Southwest  Level Estimated
04:06AM 9.3423 98.8453 203° Southwest  Level Estimated
04:07AM 9.2351 98.7991 203° Southwest  Level Estimated
04:08AM 9.1279 98.7529 203° Southwest  Level Estimated
04:09AM 9.0207 98.7067 203° Southwest  Level Estimated
04:10AM 8.9135 98.6605 203° Southwest  Level Estimated
04:11AM 8.8063 98.6144 203° Southwest  Level Estimated
04:12AM 8.6991 98.5683 203° Southwest  Level Estimated
04:13AM 8.5919 98.5222 203° Southwest  Level Estimated
04:14AM 8.4847 98.4762 203° Southwest  Level Estimated
04:15AM 8.3774 98.4302 203° Southwest  Level Estimated
04:16AM 8.2702 98.3842 203° Southwest  Level Estimated
04:17AM 8.1629 98.3382 203° Southwest  Level Estimated
04:18AM 8.0557 98.2922 23° Northeast  Level Estimated
04:19AM 8.1629 98.3382 203° Southwest  Level Estimated
04:20AM 8.0557 98.2922 23° Northeast  Level Estimated
04:21AM 8.1629 98.3382 203° Southwest  Level Estimated
04:22AM 8.0557 98.2922 23° Northeast  Level Estimated
04:23AM 8.1629 98.3382 203° Southwest  Level Estimated
04:24AM 8.0557 98.2922 23° Northeast  Level Estimated
04:25AM 8.1629 98.3382 203° Southwest  Level Estimated
04:26AM 8.0557 98.2922 23° Northeast  Level Estimated
04:27AM 8.1629 98.3382 203° Southwest  Level Estimated
04:28AM 8.0557 98.2922 23° Northeast  Level Estimated
04:29AM 8.1629 98.3382 203° Southwest  Level Estimated
04:30AM 8.0557 98.2922 23° Northeast  Level Estimated
04:31AM 8.1629 98.3382 203° Southwest  Level Estimated
04:32AM 8.0557 98.2922 23° Northeast  Level Estimated
04:33AM 8.1629 98.3382 23° Northeast  Level Estimated